createdAt,value
2018-11-04T00:00:06.608Z,7.63
2018-11-04T00:02:37.487Z,8.03
2018-11-04T00:05:08.804Z,5.50
2018-11-04T00:07:39.587Z,4.63
2018-11-04T00:10:12.832Z,4.50
2018-11-04T00:15:27.530Z,5.60
2018-11-04T00:17:58.344Z,6.63
2018-11-04T00:20:29.200Z,5.33
2018-11-04T00:22:59.678Z,4.93
2018-11-04T00:25:30.481Z,6.20
2018-11-04T00:28:01.171Z,5.97
2018-11-04T00:30:32.047Z,6.23
2018-11-04T00:33:02.571Z,4.30
2018-11-04T00:35:33.871Z,5.10
2018-11-04T00:38:04.415Z,4.63
2018-11-04T00:40:35.156Z,5.00
2018-11-04T00:43:05.988Z,4.53
2018-11-04T00:45:36.959Z,4.60
2018-11-04T00:48:07.752Z,5.50
2018-11-04T00:50:40.157Z,6.03
2018-11-04T00:53:10.928Z,5.07
2018-11-04T00:55:41.759Z,4.33
2018-11-04T00:58:12.616Z,5.33
2018-11-04T01:00:43.274Z,5.30
2018-11-04T01:03:14.392Z,4.57
2018-11-04T01:05:45.142Z,4.27
2018-11-04T01:08:16.270Z,5.10
2018-11-04T01:10:47.142Z,5.87
2018-11-04T01:13:17.877Z,4.73
2018-11-04T01:15:48.806Z,4.13
2018-11-04T01:18:19.524Z,4.80
2018-11-04T01:20:50.372Z,4.30
2018-11-04T01:23:21.284Z,3.83
2018-11-04T01:25:53.363Z,4.53
2018-11-04T01:28:24.282Z,4.53
2018-11-04T01:30:55.117Z,4.10
2018-11-04T01:33:25.910Z,4.13
2018-11-04T01:35:56.739Z,4.50
2018-11-04T01:38:27.459Z,5.27
2018-11-04T01:40:58.381Z,5.30
2018-11-04T01:43:29.376Z,4.03
2018-11-04T01:46:00.464Z,3.73
2018-11-04T01:48:31.279Z,4.20
2018-11-04T01:51:02.692Z,4.57
2018-11-04T01:53:33.489Z,4.07
2018-11-04T01:56:04.813Z,4.50
2018-11-04T01:58:35.505Z,4.10
2018-11-04T02:01:06.378Z,4.43
2018-11-04T02:03:37.157Z,3.97
2018-11-04T02:06:08.592Z,4.57
2018-11-04T02:11:09.694Z,4.33
2018-11-04T02:13:40.937Z,4.33
2018-11-04T02:16:11.875Z,5.50
2018-11-04T02:18:44.652Z,3.90
2018-11-04T02:21:15.402Z,4.03
2018-11-04T02:23:46.205Z,4.03
2018-11-04T02:26:16.973Z,4.00
2018-11-04T02:28:47.786Z,3.97
2018-11-04T02:31:18.338Z,3.67
2018-11-04T02:33:51.000Z,3.70
2018-11-04T02:36:21.784Z,4.13
2018-11-04T02:38:51.856Z,3.63
2018-11-04T02:41:23.255Z,3.50
2018-11-04T02:43:54.162Z,3.63
2018-11-04T02:46:24.967Z,4.17
2018-11-04T02:48:55.881Z,3.90
2018-11-04T02:51:26.786Z,3.90
2018-11-04T02:53:57.344Z,4.33
2018-11-04T02:56:28.298Z,3.80
2018-11-04T02:58:59.033Z,4.33
2018-11-04T03:01:29.709Z,3.50
2018-11-04T03:04:00.619Z,5.13
2018-11-04T03:06:31.792Z,3.57
2018-11-04T03:09:02.349Z,3.57
2018-11-04T03:11:32.984Z,3.97
2018-11-04T03:14:04.636Z,3.80
2018-11-04T03:16:35.216Z,4.57
2018-11-04T03:19:05.811Z,4.07
2018-11-04T03:21:36.530Z,5.03
2018-11-04T03:24:07.361Z,3.63
2018-11-04T03:26:38.164Z,3.50
2018-11-04T03:29:09.929Z,3.57
2018-11-04T03:31:41.030Z,3.50
2018-11-04T03:34:11.946Z,4.40
2018-11-04T03:36:43.303Z,4.60
2018-11-04T03:39:14.743Z,3.83
2018-11-04T03:41:45.962Z,4.77
2018-11-04T03:44:16.726Z,3.63
2018-11-04T03:46:47.679Z,3.63
2018-11-04T03:49:18.477Z,3.93
2018-11-04T03:51:49.335Z,3.90
2018-11-04T03:54:19.944Z,4.13
2018-11-04T03:56:50.636Z,3.87
2018-11-04T03:59:21.761Z,4.90
2018-11-04T04:01:52.662Z,3.40
2018-11-04T04:04:23.352Z,4.80
2018-11-04T04:06:54.199Z,3.97
2018-11-04T04:09:25.034Z,5.20
2018-11-04T04:11:55.743Z,4.50
2018-11-04T04:14:26.532Z,3.97
2018-11-04T04:16:57.420Z,3.70
2018-11-04T04:19:28.218Z,3.90
2018-11-04T04:21:59.093Z,3.53
2018-11-04T04:24:29.728Z,3.90
2018-11-04T04:27:00.659Z,4.07
2018-11-04T04:29:32.000Z,3.93
2018-11-04T04:32:02.682Z,3.90
2018-11-04T04:34:33.558Z,3.70
2018-11-04T04:37:04.392Z,4.00
2018-11-04T04:39:35.629Z,3.40
2018-11-04T04:42:06.724Z,3.43
2018-11-04T04:44:37.762Z,3.50
2018-11-04T04:47:08.674Z,3.50
2018-11-04T04:49:39.511Z,3.93
2018-11-04T04:52:10.919Z,3.83
2018-11-04T04:54:41.594Z,4.57
2018-11-04T04:59:42.369Z,4.27
2018-11-04T05:02:13.168Z,3.73
2018-11-04T05:04:43.745Z,4.03
2018-11-04T05:07:14.565Z,3.40
2018-11-04T05:09:45.344Z,4.20
2018-11-04T05:12:15.954Z,3.60
2018-11-04T05:14:47.012Z,4.20
2018-11-04T05:17:18.170Z,4.80
2018-11-04T05:19:49.369Z,3.17
2018-11-04T05:22:19.881Z,3.30
2018-11-04T05:24:50.571Z,3.50
2018-11-04T05:27:21.290Z,3.93
2018-11-04T05:29:52.141Z,3.27
2018-11-04T05:32:24.187Z,3.40
2018-11-04T05:34:55.161Z,3.80
2018-11-04T05:37:37.208Z,3.67
2018-11-04T05:40:10.029Z,4.73
2018-11-04T05:42:40.506Z,6.07
2018-11-04T05:45:11.488Z,3.90
2018-11-04T05:47:45.787Z,3.47
2018-11-04T05:50:16.538Z,5.20
2018-11-04T05:52:47.389Z,3.37
2018-11-04T05:55:23.366Z,3.20
2018-11-04T05:57:56.763Z,3.50
2018-11-04T06:00:30.287Z,3.60
2018-11-04T06:03:01.806Z,3.60
2018-11-04T06:05:32.891Z,3.87
2018-11-04T06:08:05.305Z,4.47
2018-11-04T06:10:36.628Z,4.40
2018-11-04T06:13:08.362Z,4.00
2018-11-04T06:15:39.355Z,4.07
2018-11-04T06:18:20.801Z,4.47
2018-11-04T06:20:53.373Z,3.43
2018-11-04T06:23:25.541Z,3.33
2018-11-04T06:25:56.530Z,3.93
2018-11-04T06:28:27.333Z,5.00
2018-11-04T06:30:58.593Z,4.90
2018-11-04T06:38:30.415Z,3.87
2018-11-04T06:41:01.030Z,3.97
2018-11-04T06:43:31.819Z,4.27
2018-11-04T06:46:02.430Z,3.70
2018-11-04T06:48:33.093Z,4.33
2018-11-04T06:51:04.124Z,4.50
2018-11-04T06:53:35.157Z,4.00
2018-11-04T06:56:05.750Z,3.90
2018-11-04T06:58:36.810Z,3.40
2018-11-04T07:01:07.496Z,4.27
2018-11-04T07:03:38.231Z,4.70
2018-11-04T07:06:09.032Z,4.33
2018-11-04T07:08:40.343Z,3.87
2018-11-04T07:11:11.200Z,4.13
2018-11-04T07:13:42.009Z,4.17
2018-11-04T07:16:12.983Z,3.57
2018-11-04T07:18:43.573Z,3.53
2018-11-04T07:21:14.659Z,3.20
2018-11-04T07:23:45.520Z,5.53
2018-11-04T07:26:16.601Z,3.97
2018-11-04T07:31:17.132Z,3.40
2018-11-04T07:33:48.191Z,4.40
2018-11-04T07:36:18.864Z,5.70
2018-11-04T07:38:49.597Z,5.23
2018-11-04T07:41:20.436Z,5.27
2018-11-04T07:43:51.299Z,3.87
2018-11-04T07:46:22.132Z,4.67
2018-11-04T07:48:52.927Z,4.10
2018-11-04T07:51:23.684Z,8.27
2018-11-04T07:53:54.179Z,3.77
2018-11-04T07:56:25.373Z,5.33
2018-11-04T07:58:56.296Z,4.00
2018-11-04T08:01:26.872Z,5.40
2018-11-04T08:03:57.900Z,5.37
2018-11-04T08:06:28.624Z,10.70
2018-11-04T08:11:29.538Z,23.00
2018-11-04T08:14:00.709Z,24.97
2018-11-04T08:16:32.776Z,35.03
2018-11-04T08:19:03.368Z,47.87
2018-11-04T08:21:33.896Z,58.73
2018-11-04T08:24:04.674Z,57.47
2018-11-04T08:26:35.198Z,69.20
2018-11-04T08:29:06.042Z,88.50
2018-11-04T08:31:41.512Z,88.80
2018-11-04T08:34:12.047Z,118.30
2018-11-04T08:36:43.183Z,204.67
2018-11-04T08:39:13.833Z,242.03
2018-11-04T08:41:44.527Z,272.37
2018-11-04T08:44:15.045Z,240.10
2018-11-04T08:46:45.764Z,260.27
2018-11-04T08:49:16.496Z,244.50
2018-11-04T08:51:47.300Z,236.00
2018-11-04T08:54:18.141Z,236.83
2018-11-04T08:56:48.800Z,204.57
2018-11-04T08:59:19.378Z,206.50
2018-11-04T09:01:50.522Z,192.17
2018-11-04T09:04:21.171Z,182.73
2018-11-04T09:06:51.972Z,185.63
2018-11-04T09:09:22.889Z,175.87
2018-11-04T09:11:53.789Z,165.77
2018-11-04T09:14:24.882Z,158.00
2018-11-04T09:16:55.569Z,142.47
2018-11-04T09:19:26.296Z,155.50
2018-11-04T09:21:57.633Z,164.40
2018-11-04T09:24:28.439Z,147.60
2018-11-04T09:26:59.018Z,145.00
2018-11-04T09:29:29.750Z,152.53
2018-11-04T09:32:00.377Z,133.77
2018-11-04T09:34:31.314Z,131.13
2018-11-04T09:37:01.848Z,134.50
2018-11-04T09:39:32.505Z,123.40
2018-11-04T09:42:03.720Z,126.50
2018-11-04T09:44:34.327Z,114.97
2018-11-04T09:47:05.183Z,126.27
2018-11-04T09:49:35.890Z,121.80
2018-11-04T09:52:06.513Z,117.80
2018-11-04T09:54:37.217Z,113.13
2018-11-04T09:57:12.509Z,109.60
2018-11-04T09:59:43.305Z,115.00
2018-11-04T10:02:13.905Z,112.93
2018-11-04T10:04:44.714Z,105.70
2018-11-04T10:07:15.663Z,107.40
2018-11-04T10:14:52.612Z,90.03
2018-11-04T10:19:54.086Z,99.33
2018-11-04T10:22:24.527Z,109.87
2018-11-04T10:24:55.048Z,101.70
2018-11-04T10:27:25.696Z,88.00
2018-11-04T10:29:56.662Z,94.90
2018-11-04T12:09:53.661Z,54.40
2018-11-04T12:12:24.293Z,47.17
2018-11-04T12:14:54.787Z,55.97
2018-11-04T12:17:25.546Z,50.50
2018-11-04T12:19:56.172Z,56.23
2018-11-04T12:22:26.611Z,51.00
2018-11-04T12:24:57.449Z,52.83
2018-11-04T12:27:27.976Z,48.33
2018-11-04T12:29:58.583Z,43.60
2018-11-04T12:32:29.146Z,47.57
2018-11-04T12:34:59.712Z,43.00
2018-11-04T12:37:30.331Z,39.73
2018-11-04T12:40:00.743Z,38.20
2018-11-04T12:42:31.224Z,39.70
2018-11-04T12:45:01.772Z,37.57
2018-11-04T12:47:32.353Z,43.03
2018-11-04T12:50:02.937Z,35.20
2018-11-04T12:52:33.485Z,35.70
2018-11-04T12:55:04.145Z,32.13
2018-11-04T12:57:35.024Z,32.03
2018-11-04T13:00:05.800Z,30.80
2018-11-04T13:02:36.437Z,30.68
2018-11-04T13:05:08.146Z,27.45
2018-11-04T13:07:39.249Z,32.37
2018-11-04T13:10:09.803Z,30.37
2018-11-04T13:19:17.300Z,26.17
2018-11-04T13:21:47.808Z,26.35
2018-11-04T13:24:18.569Z,22.60
2018-11-04T13:26:49.154Z,24.53
2018-11-04T13:29:19.722Z,24.18
2018-11-04T13:31:50.290Z,25.52
2018-11-04T13:34:21.029Z,18.60
2018-11-04T13:36:52.161Z,19.97
2018-11-04T13:39:22.723Z,23.83
2018-11-04T13:41:53.348Z,23.63
2018-11-04T13:44:23.854Z,24.02
2018-11-04T13:46:54.396Z,21.62
2018-11-04T13:49:24.997Z,21.00
2018-11-04T13:51:55.613Z,20.03
2018-11-04T13:54:26.579Z,24.90
2018-11-04T13:56:57.280Z,19.33
2018-11-04T13:59:27.841Z,19.13
2018-11-04T14:01:58.434Z,17.93
2018-11-04T14:04:29.279Z,19.50
2018-11-04T14:06:59.771Z,17.70
2018-11-04T14:09:30.542Z,18.50
2018-11-04T14:12:01.225Z,17.20
2018-11-04T14:14:31.808Z,17.17
2018-11-04T14:17:02.374Z,14.77
2018-11-04T14:19:33.033Z,16.60
2018-11-04T14:22:03.733Z,11.60
2018-11-04T14:24:34.513Z,17.90
2018-11-04T14:27:05.007Z,15.65
2018-11-04T14:29:35.596Z,14.57
2018-11-04T14:32:06.178Z,15.35
2018-11-04T14:34:36.730Z,14.93
2018-11-04T14:37:07.331Z,13.73
2018-11-04T14:39:38.186Z,11.57
2018-11-04T14:42:08.725Z,13.53
2018-11-04T14:44:39.283Z,10.67
2018-11-04T14:47:09.714Z,9.83
2018-11-04T14:49:40.197Z,12.40
2018-11-04T14:52:10.712Z,10.60
2018-11-04T14:54:41.198Z,10.72
2018-11-04T14:57:11.688Z,12.00
2018-11-04T14:59:43.456Z,12.20
2018-11-04T15:02:16.833Z,10.10
2018-11-04T15:04:47.559Z,9.80
2018-11-04T15:07:18.058Z,9.43
2018-11-04T15:09:48.522Z,11.40
2018-11-04T15:12:19.352Z,14.07
2018-11-04T15:14:49.795Z,11.97
2018-11-04T15:17:20.400Z,13.37
2018-11-04T15:19:51.693Z,14.60
2018-11-04T15:22:22.306Z,13.07
2018-11-04T15:24:52.992Z,12.63
2018-11-04T15:27:23.561Z,11.43
2018-11-04T15:29:53.997Z,12.60
2018-11-04T15:32:25.147Z,11.10
2018-11-04T15:34:56.338Z,10.05
2018-11-04T15:37:26.816Z,10.60
2018-11-04T15:39:57.307Z,10.83
2018-11-04T15:42:27.808Z,10.63
2018-11-04T15:44:58.396Z,9.50
2018-11-04T15:47:29.233Z,8.90
2018-11-04T15:49:59.681Z,11.30
2018-11-04T15:52:30.216Z,7.40
2018-11-04T15:55:01.338Z,8.93
2018-11-04T15:57:32.049Z,9.37
2018-11-04T16:00:03.264Z,9.40
2018-11-04T16:02:33.997Z,8.37
2018-11-04T16:05:04.836Z,10.77
2018-11-04T16:07:35.848Z,9.40
2018-11-04T16:10:06.530Z,8.43
2018-11-04T16:12:37.331Z,9.97
2018-11-04T16:15:07.703Z,8.47
2018-11-04T16:17:38.261Z,9.03
2018-11-04T16:20:08.650Z,7.80
2018-11-04T16:22:39.192Z,10.33
2018-11-04T16:25:09.652Z,9.00
2018-11-04T16:27:40.199Z,7.80
2018-11-04T16:30:10.712Z,7.00
2018-11-04T16:32:41.442Z,8.13
2018-11-04T16:35:12.356Z,8.37
2018-11-04T16:37:42.866Z,7.77
2018-11-04T16:40:13.441Z,7.85
2018-11-04T16:42:44.729Z,8.53
2018-11-04T16:45:15.239Z,9.10
2018-11-04T16:47:45.690Z,12.50
2018-11-04T16:50:16.563Z,8.50
2018-11-04T16:52:47.047Z,8.40
2018-11-04T16:55:20.961Z,10.10
2018-11-04T16:57:51.703Z,8.63
2018-11-04T17:00:27.492Z,9.67
2018-11-04T17:02:58.201Z,8.00
2018-11-04T17:05:28.885Z,11.53
2018-11-04T17:07:59.313Z,12.03
2018-11-04T17:10:36.782Z,10.48
2018-11-04T17:17:12.084Z,8.53
2018-11-04T17:19:48.673Z,10.55
2018-11-04T17:22:19.472Z,8.80
2018-11-04T17:24:50.256Z,8.17
2018-11-04T17:27:20.693Z,13.85
2018-11-04T17:30:16.654Z,9.50
2018-11-04T17:33:00.016Z,11.33
2018-11-04T17:35:54.666Z,8.67
2018-11-04T17:38:27.829Z,10.53
2018-11-04T17:41:12.868Z,8.27
2018-11-04T17:43:58.163Z,11.37
2018-11-04T17:46:31.818Z,7.20
2018-11-04T17:49:03.006Z,8.27
2018-11-04T17:51:33.620Z,9.83
2018-11-04T17:54:04.326Z,8.43
2018-11-04T17:56:34.764Z,10.70
2018-11-04T18:06:23.824Z,8.20
2018-11-04T18:08:56.722Z,8.40
2018-11-04T18:11:27.286Z,9.27
2018-11-04T18:32:20.321Z,10.25
2018-11-04T18:34:52.918Z,11.27
2018-11-04T18:37:25.564Z,8.10
2018-11-04T18:39:56.064Z,8.45
2018-11-04T18:42:26.757Z,8.75
2018-11-04T18:44:57.321Z,6.87
2018-11-04T18:47:27.897Z,9.17
2018-11-04T18:49:58.437Z,7.63
2018-11-04T18:52:29.439Z,8.03
2018-11-04T18:55:16.715Z,6.90
2018-11-04T18:57:50.675Z,8.70
2018-11-04T19:00:26.489Z,6.72
2018-11-04T19:02:57.419Z,6.60
2018-11-04T19:08:19.024Z,7.45
2018-11-04T19:10:49.668Z,10.57
2018-11-04T19:13:20.232Z,7.80
2018-11-04T19:15:50.780Z,7.62
2018-11-04T19:18:22.164Z,12.97
2018-11-04T19:20:52.959Z,7.60
2018-11-04T19:23:23.818Z,8.23
2018-11-04T19:25:54.614Z,8.83
2018-11-04T19:28:26.669Z,8.27
2018-11-04T19:30:57.597Z,6.27
2018-11-04T19:33:29.603Z,8.77
2018-11-04T19:36:00.401Z,9.33
2018-11-04T19:38:31.216Z,9.13
2018-11-04T19:41:02.159Z,9.60
2018-11-04T19:43:32.736Z,10.83
2018-11-04T19:46:03.318Z,7.50
2018-11-04T19:48:34.252Z,6.63
2018-11-04T19:51:05.198Z,5.60
2018-11-04T19:53:35.998Z,6.73
2018-11-04T19:56:30.763Z,7.17
2018-11-04T19:59:13.606Z,6.28
2018-11-04T20:01:54.501Z,5.90
2018-11-04T20:04:31.515Z,7.65
2018-11-04T20:07:12.386Z,6.20
2018-11-04T20:09:54.257Z,5.83
2018-11-04T20:12:33.597Z,5.90
2018-11-04T20:15:10.024Z,6.33
2018-11-04T20:17:43.571Z,5.60
2018-11-04T20:20:16.481Z,6.70
2018-11-04T20:22:53.287Z,5.50
2018-11-04T20:26:11.344Z,6.92
2018-11-04T20:28:42.795Z,6.47
2018-11-04T20:31:13.633Z,5.57
2018-11-04T20:33:44.293Z,7.30
2018-11-04T20:36:16.325Z,6.20
2018-11-04T20:38:47.476Z,5.43
2018-11-04T20:41:23.364Z,5.60
2018-11-04T20:43:54.411Z,5.47
2018-11-04T20:46:25.213Z,7.57
2018-11-04T20:51:59.829Z,7.50
2018-11-04T20:54:30.633Z,5.28
2018-11-04T21:00:14.015Z,7.77
2018-11-04T21:02:45.213Z,6.67
2018-11-04T21:05:15.993Z,6.78
2018-11-04T21:07:46.553Z,5.63
2018-11-04T21:10:17.404Z,5.75
2018-11-04T21:12:50.243Z,5.20
2018-11-04T21:15:25.666Z,7.50
2018-11-04T21:17:57.251Z,5.33
2018-11-04T21:20:30.111Z,6.07
2018-11-04T21:23:00.721Z,4.80
2018-11-04T21:25:31.793Z,5.15
2018-11-04T21:28:02.476Z,5.90
2018-11-04T21:30:33.851Z,5.50
2018-11-04T21:33:04.467Z,5.10
2018-11-04T21:35:35.421Z,5.90
2018-11-04T21:38:06.768Z,7.00
2018-11-04T21:40:37.540Z,5.00
2018-11-04T21:43:08.515Z,7.00
2018-11-04T21:45:39.434Z,5.43
2018-11-04T21:48:10.615Z,5.00
2018-11-04T21:50:41.333Z,5.15
2018-11-04T21:53:12.326Z,7.92
2018-11-04T21:55:43.488Z,6.63
2018-11-04T21:58:15.239Z,6.63
2018-11-04T22:00:46.163Z,4.67
2018-11-04T22:03:17.054Z,7.03
2018-11-04T22:05:47.681Z,7.60
2018-11-04T22:11:26.935Z,4.92
2018-11-04T22:13:57.692Z,5.65
2018-11-04T22:16:28.885Z,5.90
2018-11-04T22:23:47.252Z,4.70
2018-11-04T22:26:29.810Z,4.70
2018-11-04T22:29:19.185Z,6.60
2018-11-04T22:31:49.865Z,5.55
2018-11-04T22:34:20.828Z,5.33
2018-11-04T22:36:51.696Z,4.50
2018-11-04T22:39:22.855Z,5.13
2018-11-04T22:41:53.820Z,5.10
2018-11-04T22:44:24.418Z,4.43
2018-11-04T22:46:55.258Z,5.30
2018-11-04T22:49:26.557Z,5.23
2018-11-04T22:51:57.453Z,6.13
2018-11-04T22:56:59.375Z,4.15
2018-11-04T22:59:30.187Z,4.83
2018-11-04T23:02:00.993Z,4.25
2018-11-04T23:04:33.045Z,4.40
2018-11-04T23:09:44.559Z,6.40
2018-11-04T23:12:15.560Z,5.33
2018-11-04T23:14:47.014Z,4.50
2018-11-04T23:17:18.155Z,4.53
2018-11-04T23:19:49.323Z,4.37
2018-11-04T23:22:20.431Z,5.00
2018-11-04T23:24:51.275Z,4.00
2018-11-04T23:27:21.806Z,4.40
2018-11-04T23:29:52.728Z,4.20
2018-11-04T23:32:24.097Z,4.07
2018-11-04T23:34:55.398Z,4.00
2018-11-04T23:37:26.724Z,5.50
2018-11-04T23:39:57.384Z,3.73
2018-11-04T23:42:28.240Z,3.97
2018-11-04T23:44:59.171Z,3.93
2018-11-04T23:47:30.114Z,5.23
2018-11-04T23:50:00.648Z,3.73
2018-11-04T23:52:31.679Z,4.10
2018-11-04T23:55:02.316Z,3.90
2018-11-04T23:57:33.468Z,3.80
